Boultons Beach, New York
Current Conditions -  °F | °C
As of 10:56 AM on Wednesday 22 Oct 2014 (Local Time) from KART Reporting Station
Overcast Overcast  
Wind Chill:   Ceiling: 2000
Heat Index:   Visibility: 10mi
Dew Point:   Wind: 18mph
Humidity: 64%   Direction: 50°NE
Pressure: 30.2"   Gusts: NA
Location:  43.9321°N, 76.0832°W
Report Text: KART 221456Z AUTO 05016KT 10SM OVC020 09/03 A3020 RMK AO2 SLP229 T00940028 51008
Loading
Personal Weather Stations






























Interactive Weather Map
Tropical Storm Tracking
New forecast layout! Learn more

10-Day Weather Forecast

Advertisements
Track Severe Weather on mobile